createdAt,value
2019-05-14T00:04:54.678Z,9.47
2019-05-14T00:10:01.272Z,9.07
2019-05-14T00:15:05.626Z,8.95
2019-05-14T00:20:12.481Z,8.94
2019-05-14T00:25:18.016Z,8.82
2019-05-14T00:30:22.086Z,8.87
2019-05-14T00:35:25.628Z,8.46
2019-05-14T00:40:31.233Z,8.15
2019-05-14T00:45:34.228Z,7.92
2019-05-14T00:50:37.771Z,8.03
2019-05-14T00:55:42.076Z,7.86
2019-05-14T01:00:47.251Z,7.89
2019-05-14T01:05:52.266Z,7.99
2019-05-14T01:10:55.899Z,8.05
2019-05-14T01:16:01.316Z,8.10
2019-05-14T01:21:04.488Z,7.81
2019-05-14T01:26:07.903Z,7.70
2019-05-14T01:31:12.421Z,7.82
2019-05-14T01:36:16.654Z,7.42
2019-05-14T01:41:22.204Z,7.55
2019-05-14T01:46:25.213Z,7.70
2019-05-14T01:51:28.734Z,7.68
2019-05-14T01:56:32.164Z,7.36
2019-05-14T02:01:35.570Z,7.11
2019-05-14T02:06:41.114Z,7.25
2019-05-14T02:11:44.115Z,7.39
2019-05-14T02:16:47.531Z,7.33
2019-05-14T02:21:51.387Z,7.40
2019-05-14T02:26:54.949Z,7.45
2019-05-14T02:31:59.010Z,7.54
2019-05-14T02:37:02.533Z,7.59
2019-05-14T02:42:08.996Z,7.51
2019-05-14T02:47:11.096Z,7.59
2019-05-14T02:52:14.544Z,7.47
2019-05-14T02:57:19.948Z,7.36
2019-05-14T03:02:23.324Z,7.23
2019-05-14T03:07:29.608Z,7.22
2019-05-14T03:12:32.105Z,7.39
2019-05-14T03:17:35.549Z,7.53
2019-05-14T03:22:53.651Z,7.21
2019-05-14T03:27:44.214Z,7.20
2019-05-14T03:32:52.874Z,7.19
2019-05-14T03:37:53.001Z,7.48
2019-05-14T03:42:59.596Z,7.51
2019-05-14T03:48:01.629Z,7.54
2019-05-14T03:53:05.117Z,7.55
2019-05-14T03:58:09.897Z,7.67
2019-05-14T04:03:13.728Z,7.43
2019-05-14T04:08:21.475Z,7.36
2019-05-14T04:13:24.998Z,7.41
2019-05-14T04:18:30.176Z,7.38
2019-05-14T04:23:39.575Z,7.25
2019-05-14T04:28:45.843Z,7.38
2019-05-14T04:33:50.775Z,7.59
2019-05-14T04:38:55.367Z,7.80
2019-05-14T04:43:59.557Z,7.87
2019-05-14T04:49:03.097Z,7.89
2019-05-14T04:54:09.420Z,7.90
2019-05-14T04:59:11.943Z,7.90
2019-05-14T05:04:15.331Z,8.07
2019-05-14T05:09:20.039Z,7.92
2019-05-14T05:14:24.047Z,8.00
2019-05-14T05:19:29.029Z,8.06
2019-05-14T05:24:32.651Z,8.21
2019-05-14T05:29:36.070Z,8.23
2019-05-14T05:34:39.503Z,8.29
2019-05-14T05:39:42.910Z,8.32
2019-05-14T05:44:48.338Z,8.36
2019-05-14T05:49:51.491Z,8.35
2019-05-14T05:54:54.960Z,8.36
2019-05-14T05:59:59.089Z,8.45
2019-05-14T06:05:02.797Z,8.50
2019-05-14T06:10:08.439Z,8.48
2019-05-14T06:15:14.437Z,8.57
2019-05-14T06:20:18.940Z,8.69
2019-05-14T06:25:22.469Z,8.74
2019-05-14T06:30:39.547Z,8.76
2019-05-14T06:35:42.739Z,8.80
2019-05-14T06:40:48.792Z,8.89
2019-05-14T06:45:51.461Z,9.05
2019-05-14T06:50:54.859Z,9.17
2019-05-14T06:55:58.748Z,9.35
2019-05-14T07:01:02.475Z,9.67
2019-05-14T07:06:05.905Z,10.04
2019-05-14T07:11:09.341Z,10.50
2019-05-14T07:16:12.765Z,10.63
2019-05-14T07:21:18.517Z,11.07
2019-05-14T07:26:21.417Z,11.45
2019-05-14T07:31:24.837Z,11.77
2019-05-14T07:36:29.279Z,12.02
2019-05-14T07:41:32.876Z,11.96
2019-05-14T07:46:38.824Z,12.27
2019-05-14T07:51:41.467Z,12.62
2019-05-14T07:56:44.894Z,13.02
2019-05-14T08:01:49.090Z,13.43
2019-05-14T08:06:52.637Z,13.53
2019-05-14T08:11:58.555Z,13.64
2019-05-14T08:17:01.203Z,14.06
2019-05-14T08:22:04.854Z,14.19
2019-05-14T08:27:08.662Z,14.42
2019-05-14T08:32:12.228Z,14.54
2019-05-14T08:37:15.663Z,14.84
2019-05-14T08:42:19.075Z,15.30
2019-05-14T08:47:22.519Z,15.49
2019-05-14T08:52:28.584Z,15.79
2019-05-14T08:57:31.187Z,16.19
2019-05-14T09:02:34.589Z,16.39
2019-05-14T09:07:38.490Z,16.54
2019-05-14T09:12:42.020Z,16.84
2019-05-14T09:17:45.443Z,17.43
2019-05-14T09:22:49.199Z,17.55
2019-05-14T09:27:52.670Z,17.57
2019-05-14T09:32:56.073Z,18.02
2019-05-14T09:37:59.526Z,17.81
2019-05-14T09:43:02.948Z,17.75
2019-05-14T09:48:08.701Z,17.61
2019-05-14T09:53:11.539Z,17.49
2019-05-14T09:58:15.019Z,17.12
2019-05-14T10:03:19.276Z,17.20
2019-05-14T10:08:22.719Z,17.30
2019-05-14T10:13:28.066Z,17.68
2019-05-14T10:18:31.267Z,18.29
2019-05-14T10:23:34.774Z,19.13
2019-05-14T10:28:41.182Z,19.61
2019-05-14T10:33:43.385Z,19.01
2019-05-14T10:38:46.847Z,18.83
2019-05-14T10:43:50.294Z,19.37
2019-05-14T10:48:53.724Z,20.01
2019-05-14T10:53:59.538Z,19.71
2019-05-14T10:59:02.320Z,19.49
2019-05-14T11:04:05.730Z,19.51
2019-05-14T11:09:09.324Z,20.42
2019-05-14T11:14:12.729Z,20.70
2019-05-14T11:19:18.651Z,21.48
2019-05-14T11:24:21.309Z,21.35
2019-05-14T11:29:24.734Z,21.69
2019-05-14T11:34:28.858Z,20.70
2019-05-14T11:39:32.351Z,21.71
2019-05-14T11:44:38.016Z,21.22
2019-05-14T11:49:40.943Z,21.22
2019-05-14T11:54:44.386Z,20.75
2019-05-14T11:59:48.139Z,20.55
2019-05-14T12:04:51.559Z,21.23
2019-05-14T12:09:55.020Z,21.50
2019-05-14T12:14:58.449Z,21.06
2019-05-14T12:20:02.209Z,22.12
2019-05-14T12:25:08.180Z,22.53
2019-05-14T12:30:13.433Z,22.60
2019-05-14T12:35:19.445Z,23.05
2019-05-14T12:40:22.049Z,23.09
2019-05-14T12:45:25.464Z,24.08
2019-05-14T12:50:28.884Z,22.33
2019-05-14T12:55:32.358Z,21.90
2019-05-14T13:00:35.770Z,21.40
2019-05-14T13:05:39.181Z,21.91
2019-05-14T13:10:42.611Z,23.02
2019-05-14T13:15:48.278Z,23.33
2019-05-14T13:20:51.182Z,23.57
2019-05-14T13:25:54.730Z,24.42
2019-05-14T13:30:59.639Z,23.36
2019-05-14T13:36:03.397Z,22.39
2019-05-14T13:41:08.631Z,23.09
2019-05-14T13:46:14.964Z,23.09
2019-05-14T13:51:19.483Z,22.10
2019-05-14T13:56:22.360Z,20.94
2019-05-14T14:01:25.790Z,22.43
2019-05-14T14:06:29.314Z,22.33
2019-05-14T14:11:32.730Z,22.31
2019-05-14T14:16:36.161Z,22.20
2019-05-14T14:21:39.908Z,23.03
2019-05-14T14:26:43.466Z,22.91
2019-05-14T14:31:48.553Z,23.92
2019-05-14T14:36:55.099Z,23.86
2019-05-14T14:41:58.485Z,23.68
2019-05-14T14:47:02.159Z,23.01
2019-05-14T14:52:05.568Z,22.80
2019-05-14T14:57:09.003Z,22.89
2019-05-14T15:02:12.439Z,22.67
2019-05-14T15:07:15.859Z,22.76
2019-05-14T15:12:20.026Z,22.57
2019-05-14T15:17:23.603Z,22.96
2019-05-14T15:22:31.040Z,23.24
2019-05-14T15:27:32.283Z,22.75
2019-05-14T15:32:35.702Z,23.15
2019-05-14T15:37:42.696Z,22.49
2019-05-14T15:42:44.338Z,22.38
2019-05-14T15:47:48.440Z,22.68
2019-05-14T15:52:52.253Z,22.86
2019-05-14T15:57:55.686Z,22.85
2019-05-14T16:03:00.284Z,22.71
2019-05-14T16:08:03.925Z,22.63
2019-05-14T16:13:08.785Z,22.24
2019-05-14T16:18:18.549Z,22.56
2019-05-14T16:23:18.781Z,22.25
2019-05-14T16:28:22.319Z,21.47
2019-05-14T16:33:28.836Z,20.61
2019-05-14T16:38:30.871Z,19.66
2019-05-14T16:43:34.303Z,19.53
2019-05-14T16:48:39.625Z,19.22
2019-05-14T16:53:43.033Z,19.01
2019-05-14T16:58:46.474Z,18.78
2019-05-14T17:03:49.900Z,18.65
2019-05-14T17:08:53.313Z,18.05
2019-05-14T17:13:57.978Z,18.11
2019-05-14T17:19:01.827Z,17.88
2019-05-14T17:24:05.246Z,17.94
2019-05-14T17:29:08.883Z,17.94
2019-05-14T17:34:12.478Z,17.84
2019-05-14T17:39:15.934Z,17.63
2019-05-14T17:44:19.694Z,17.69
2019-05-14T17:49:23.222Z,17.54
2019-05-14T17:54:28.400Z,17.28
2019-05-14T17:59:33.637Z,17.30
2019-05-14T18:04:37.364Z,17.20
2019-05-14T18:09:41.584Z,17.12
2019-05-14T18:14:45.005Z,16.73
2019-05-14T18:19:48.558Z,16.66
2019-05-14T18:24:51.915Z,16.59
2019-05-14T18:29:55.338Z,16.44
2019-05-14T18:34:58.770Z,16.45
2019-05-14T18:40:02.243Z,16.22
2019-05-14T18:45:08.651Z,16.14
2019-05-14T18:50:12.796Z,16.08
2019-05-14T18:55:18.614Z,15.81
2019-05-14T19:00:21.565Z,15.50
2019-05-14T19:05:25.030Z,15.33
2019-05-14T19:10:28.537Z,15.07
2019-05-14T19:15:31.988Z,14.85
2019-05-14T19:20:35.414Z,14.71
2019-05-14T19:25:39.045Z,14.63
2019-05-14T19:30:43.013Z,14.47
2019-05-14T19:35:48.416Z,14.05
2019-05-14T19:40:51.576Z,13.79
2019-05-14T19:45:55.006Z,13.57
2019-05-14T19:50:58.695Z,13.43
2019-05-14T19:56:02.198Z,13.49
2019-05-14T20:01:05.992Z,13.42
2019-05-14T20:06:09.415Z,13.23
2019-05-14T20:11:12.842Z,13.16
2019-05-14T20:16:18.501Z,13.03
2019-05-14T20:21:22.244Z,12.78
2019-05-14T20:26:28.040Z,12.68
2019-05-14T20:31:30.874Z,12.56
2019-05-14T20:36:34.302Z,12.34
2019-05-14T20:41:38.503Z,11.98
2019-05-14T20:46:42.200Z,11.86
2019-05-14T20:51:45.611Z,11.71
2019-05-14T20:56:49.373Z,11.42
2019-05-14T21:01:52.837Z,11.31
2019-05-14T21:06:58.601Z,11.36
2019-05-14T21:12:01.474Z,11.08
2019-05-14T21:17:04.986Z,11.01
2019-05-14T21:22:08.568Z,10.90
2019-05-14T21:27:11.937Z,10.72
2019-05-14T21:32:15.386Z,10.68
2019-05-14T21:37:19.025Z,10.64
2019-05-14T21:42:22.479Z,10.51
2019-05-14T21:47:25.929Z,10.42
2019-05-14T21:52:29.389Z,10.44
2019-05-14T21:57:32.837Z,10.48
2019-05-14T22:02:38.396Z,10.45
2019-05-14T22:07:41.884Z,10.45
2019-05-14T22:12:45.350Z,10.44
2019-05-14T22:17:49.293Z,10.39
2019-05-14T22:22:52.825Z,10.13
2019-05-14T22:28:10.839Z,10.00
2019-05-14T22:33:01.431Z,9.84
2019-05-14T22:38:04.862Z,9.86
2019-05-14T22:43:09.272Z,9.83
2019-05-14T22:48:12.901Z,9.70
2019-05-14T22:53:16.351Z,9.74
2019-05-14T22:58:25.611Z,9.64
2019-05-14T23:03:24.937Z,9.70
2019-05-14T23:08:28.373Z,9.49
2019-05-14T23:13:31.801Z,9.46
2019-05-14T23:18:35.259Z,9.36
2019-05-14T23:23:39.399Z,9.22
2019-05-14T23:28:45.989Z,9.01
2019-05-14T23:33:49.032Z,9.14
2019-05-14T23:38:53.493Z,9.18
2019-05-14T23:43:56.935Z,9.31
2019-05-14T23:49:00.393Z,9.35
2019-05-14T23:54:03.911Z,9.39
2019-05-14T23:59:09.330Z,9.39
